Time,TemperatureF,DewpointF,PressureIn,WindDirection,WindDirectionDegrees,WindSpeedMPH,WindSpeedGustMPH,Humidity,HourlyPrecipIn,Conditions,Clouds,dailyrainin,SoftwareType,DateUTC
2013-10-18 00:01:00,63.9,61.8,29.61,SSW,212,4.5,7.0,93,0.02,RA,,0.00,WeatherDisplay:10.37,2013-10-18 04:01:00,
2013-10-18 00:02:00,63.9,61.8,29.61,West,277,5.2,8.1,93,0.02,RA,,0.00,WeatherDisplay:10.37,2013-10-18 04:02:00,
2013-10-18 00:03:00,63.9,61.8,29.61,West,260,6.1,11.5,93,0.02,RA,,0.00,WeatherDisplay:10.37,2013-10-18 04:03:00,
2013-10-18 00:08:00,63.9,61.8,29.61,WSW,237,7.8,13.0,93,0.02,RA,,0.00,WeatherDisplay:10.37,2013-10-18 04:08:00,
2013-10-18 00:13:00,63.7,61.3,29.61,SW,215,9.6,15.0,92,0.00,RA,,0.01,WeatherDisplay:10.37,2013-10-18 04:13:00,
2013-10-18 00:18:00,63.7,61.0,29.61,South,188,5.9,11.5,91,0.00,RA,,0.01,WeatherDisplay:10.37,2013-10-18 04:18:00,
2013-10-18 00:23:00,63.7,61.0,29.61,South,169,6.9,11.5,91,0.03,CLR,,0.01,WeatherDisplay:10.37,2013-10-18 04:23:00,
2013-10-18 00:28:00,63.5,60.8,29.61,West,275,4.2,6.9,91,0.01,CLR,,0.01,WeatherDisplay:10.37,2013-10-18 04:28:00,
2013-10-18 00:33:00,63.5,60.5,29.61,WNW,284,2.1,10.4,90,0.01,CLR,,0.01,WeatherDisplay:10.37,2013-10-18 04:33:00,
2013-10-18 00:38:00,63.4,60.4,29.61,WNW,302,3.6,10.4,90,0.01,CLR,,0.01,WeatherDisplay:10.37,2013-10-18 04:38:00,
2013-10-18 00:43:00,63.2,59.9,29.62,West,268,2.9,11.5,89,0.01,CLR,,0.01,WeatherDisplay:10.37,2013-10-18 04:43:00,
2013-10-18 00:48:00,63.1,59.8,29.62,West,271,3.9,10.4,89,0.01,CLR,,0.01,WeatherDisplay:10.37,2013-10-18 04:48:00,
2013-10-18 00:53:00,62.9,59.0,29.62,WNW,299,7.4,11.5,87,0.01,CLR,,0.01,WeatherDisplay:10.37,2013-10-18 04:53:00,
2013-10-18 00:58:00,62.9,58.6,29.62,WSW,251,5.3,16.1,86,0.01,CLR,,0.01,WeatherDisplay:10.37,2013-10-18 04:58:00,
2013-10-18 01:03:00,62.9,58.3,29.62,West,274,5.2,9.2,85,0.01,CLR,,0.01,WeatherDisplay:10.37,2013-10-18 05:03:00,
2013-10-18 01:08:00,62.9,58.0,29.62,WSW,256,2.2,8.0,84,0.01,CLR,,0.01,WeatherDisplay:10.37,2013-10-18 05:08:00,
2013-10-18 01:13:00,62.7,57.8,29.62,SW,223,4.6,11.5,84,0.00,CLR,,0.01,WeatherDisplay:10.37,2013-10-18 05:13:00,
2013-10-18 01:18:00,62.4,57.2,29.63,West,260,3.6,14.0,83,0.00,CLR,,0.01,WeatherDisplay:10.37,2013-10-18 05:18:00,
2013-10-18 01:23:00,62.3,56.7,29.63,SW,234,4.0,6.9,82,0.00,CLR,,0.01,WeatherDisplay:10.37,2013-10-18 05:23:00,
2013-10-18 01:28:00,62.1,56.5,29.63,SW,234,3.4,13.8,82,0.00,CLR,,0.01,WeatherDisplay:10.37,2013-10-18 05:28:00,
2013-10-18 01:33:00,62.0,56.4,29.64,West,280,2.9,6.0,82,0.00,CLR,,0.01,WeatherDisplay:10.37,2013-10-18 05:33:00,
2013-10-18 01:38:00,61.5,55.6,29.64,WSW,244,6.9,12.7,81,0.00,CLR,,0.01,WeatherDisplay:10.37,2013-10-18 05:38:00,
2013-10-18 01:43:00,61.3,55.1,29.64,WSW,241,5.3,17.3,80,0.00,CLR,,0.01,WeatherDisplay:10.37,2013-10-18 05:43:00,
2013-10-18 01:48:00,61.0,54.8,29.64,SW,233,1.6,8.1,80,0.00,CLR,,0.01,WeatherDisplay:10.37,2013-10-18 05:48:00,
2013-10-18 01:53:00,60.7,54.1,29.65,West,280,3.2,10.4,79,0.00,CLR,,0.01,WeatherDisplay:10.37,2013-10-18 05:53:00,
2013-10-18 01:58:00,60.5,54.0,29.65,WNW,294,1.9,6.9,79,0.00,CLR,,0.01,WeatherDisplay:10.37,2013-10-18 05:58:00,
2013-10-18 02:03:00,60.2,53.3,29.65,West,267,1.4,4.6,78,0.00,CLR,,0.01,WeatherDisplay:10.37,2013-10-18 06:03:00,
2013-10-18 02:08:00,59.9,52.7,29.65,WNW,302,5.5,12.7,77,0.00,CLR,,0.01,WeatherDisplay:10.37,2013-10-18 06:08:00,
2013-10-18 02:13:00,59.8,52.6,29.65,WSW,251,3.6,10.4,77,0.00,CLR,,0.01,WeatherDisplay:10.37,2013-10-18 06:13:00,
2013-10-18 02:18:00,59.6,52.4,29.66,WSW,248,4.9,8.1,77,0.00,CLR,,0.01,WeatherDisplay:10.37,2013-10-18 06:18:00,
2013-10-18 02:23:00,59.5,51.9,29.66,NW,326,5.3,15.0,76,0.00,CLR,,0.01,WeatherDisplay:10.37,2013-10-18 06:23:00,
2013-10-18 02:28:00,59.3,51.7,29.66,WNW,295,0.9,3.5,76,0.00,CLR,,0.01,WeatherDisplay:10.37,2013-10-18 06:28:00,
2013-10-18 02:33:00,59.2,52.0,29.67,WSW,256,1.6,10.4,77,0.00,CLR,,0.01,WeatherDisplay:10.37,2013-10-18 06:33:00,
2013-10-18 02:38:00,58.9,51.7,29.67,WNW,287,1.9,8.1,77,0.00,CLR,,0.01,WeatherDisplay:10.37,2013-10-18 06:38:00,
2013-10-18 02:43:00,58.7,51.5,29.67,SSW,210,1.9,6.9,77,0.00,CLR,,0.01,WeatherDisplay:10.37,2013-10-18 06:43:00,
2013-10-18 02:48:00,58.4,51.2,29.67,West,271,7.1,16.1,77,0.00,CLR,,0.01,WeatherDisplay:10.37,2013-10-18 06:48:00,
2013-10-18 02:53:00,58.3,51.1,29.67,West,268,0.9,8.1,77,0.00,CLR,,0.01,WeatherDisplay:10.37,2013-10-18 06:53:00,
2013-10-18 02:58:00,58.1,50.9,29.67,WSW,246,4.9,10.4,77,0.00,CLR,,0.01,WeatherDisplay:10.37,2013-10-18 06:58:00,
2013-10-18 03:03:00,58.0,50.8,29.67,WSW,253,0.2,2.3,77,0.00,CLR,,0.01,WeatherDisplay:10.37,2013-10-18 07:03:00,
2013-10-18 03:08:00,57.8,50.6,29.67,West,274,2.5,8.1,77,0.00,CLR,,0.01,WeatherDisplay:10.37,2013-10-18 07:08:00,
2013-10-18 03:13:00,58.0,50.8,29.67,West,277,0.0,2.3,77,0.00,CLR,,0.01,WeatherDisplay:10.37,2013-10-18 07:13:00,
2013-10-18 03:18:00,57.8,50.6,29.67,SW,233,0.2,2.3,77,0.00,CLR,,0.01,WeatherDisplay:10.37,2013-10-18 07:18:00,
2013-10-18 03:23:00,57.8,50.6,29.68,WSW,253,0.0,0.0,77,0.00,CLR,,0.01,WeatherDisplay:10.37,2013-10-18 07:23:00,
2013-10-18 03:28:00,57.5,50.3,29.68,WNW,294,4.3,11.5,77,0.00,CLR,,0.01,WeatherDisplay:10.37,2013-10-18 07:28:00,
2013-10-18 03:33:00,57.5,50.3,29.68,NW,306,4.3,17.3,77,0.00,CLR,,0.01,WeatherDisplay:10.37,2013-10-18 07:33:00,
2013-10-18 03:38:00,57.3,49.8,29.69,West,278,1.0,9.2,76,0.00,CLR,,0.01,WeatherDisplay:10.37,2013-10-18 07:38:00,
2013-10-18 03:43:00,57.3,49.8,29.69,West,267,0.2,3.5,76,0.00,CLR,,0.01,WeatherDisplay:10.37,2013-10-18 07:43:00,
2013-10-18 03:48:00,57.2,49.3,29.69,West,278,0.7,5.8,75,0.00,CLR,,0.01,WeatherDisplay:10.37,2013-10-18 07:48:00,
2013-10-18 03:53:00,56.7,47.8,29.69,WNW,285,0.8,8.0,72,0.00,CLR,,0.01,WeatherDisplay:10.37,2013-10-18 07:53:00,
2013-10-18 03:58:00,56.5,47.2,29.69,WSW,240,3.1,8.1,71,0.00,CLR,,0.01,WeatherDisplay:10.37,2013-10-18 07:58:00,
2013-10-18 04:03:00,56.3,47.0,29.70,SW,226,4.1,13.8,71,0.00,CLR,,0.01,WeatherDisplay:10.37,2013-10-18 08:03:00,
2013-10-18 04:08:00,56.0,47.1,29.71,West,270,0.3,8.1,72,0.00,CLR,,0.01,WeatherDisplay:10.37,2013-10-18 08:08:00,
2013-10-18 04:13:00,55.9,46.6,29.71,WSW,248,1.6,5.8,71,0.00,CLR,,0.01,WeatherDisplay:10.37,2013-10-18 08:13:00,
2013-10-18 04:18:00,55.6,46.3,29.71,WNW,299,0.0,0.0,71,0.00,CLR,,0.01,WeatherDisplay:10.37,2013-10-18 08:18:00,
2013-10-18 04:23:00,55.4,46.2,29.70,WNW,287,2.8,11.5,71,0.00,CLR,,0.01,WeatherDisplay:10.37,2013-10-18 08:23:00,
2013-10-18 04:28:00,55.4,45.8,29.70,WSW,246,2.6,9.2,70,0.00,CLR,,0.01,WeatherDisplay:10.37,2013-10-18 08:28:00,
2013-10-18 04:42:00,54.8,45.6,29.71,West,268,8.3,16.1,71,0.00,RA,,0.01,WeatherDisplay:10.37,2013-10-18 08:42:00,
2013-10-18 04:47:00,54.7,45.1,29.71,NW,304,5.2,8.1,70,0.00,RA,,0.01,WeatherDisplay:10.37,2013-10-18 08:47:00,
2013-10-18 04:52:00,54.7,45.1,29.71,WNW,294,2.5,5.8,70,0.00,CLR,,0.01,WeatherDisplay:10.37,2013-10-18 08:52:00,
2013-10-18 04:57:00,54.5,44.9,29.72,NNW,328,1.2,4.6,70,0.00,CLR,,0.01,WeatherDisplay:10.37,2013-10-18 08:57:00,
2013-10-18 05:02:00,54.4,44.8,29.72,WSW,256,0.4,3.5,70,0.00,CLR,,0.01,WeatherDisplay:10.37,2013-10-18 09:02:00,
2013-10-18 05:07:00,54.2,44.6,29.72,WNW,287,0.0,0.0,70,0.00,CLR,,0.01,WeatherDisplay:10.37,2013-10-18 09:07:00,
2013-10-18 05:12:00,53.9,44.7,29.72,West,265,0.0,0.0,71,0.00,CLR,,0.01,WeatherDisplay:10.37,2013-10-18 09:12:00,
2013-10-18 05:17:00,53.8,45.0,29.72,WSW,239,2.6,3.5,72,0.00,CLR,,0.01,WeatherDisplay:10.37,2013-10-18 09:17:00,
2013-10-18 05:22:00,53.8,45.0,29.73,West,265,1.9,4.6,72,0.00,CLR,,0.01,WeatherDisplay:10.37,2013-10-18 09:22:00,
2013-10-18 05:27:00,53.5,45.1,29.73,West,264,0.0,0.0,73,0.00,CLR,,0.01,WeatherDisplay:10.37,2013-10-18 09:27:00,
2013-10-18 05:32:00,53.3,45.2,29.73,WSW,243,0.0,0.0,74,0.00,CLR,,0.01,WeatherDisplay:10.37,2013-10-18 09:32:00,
2013-10-18 05:37:00,53.1,45.0,29.73,WSW,241,0.0,3.5,74,0.00,CLR,,0.01,WeatherDisplay:10.37,2013-10-18 09:37:00,
2013-10-18 05:42:00,52.9,44.8,29.73,WSW,251,0.4,5.8,74,0.00,CLR,,0.01,WeatherDisplay:10.37,2013-10-18 09:42:00,
2013-10-18 05:47:00,52.8,44.7,29.74,WSW,246,0.2,0.0,74,0.00,CLR,,0.01,WeatherDisplay:10.37,2013-10-18 09:47:00,
2013-10-18 05:52:00,52.8,44.7,29.74,WNW,299,3.2,10.4,74,0.00,CLR,,0.01,WeatherDisplay:10.37,2013-10-18 09:52:00,
2013-10-18 05:57:00,52.6,44.5,29.74,SSW,206,0.0,0.0,74,0.00,CLR,,0.01,WeatherDisplay:10.37,2013-10-18 09:57:00,
2013-10-18 06:02:00,52.3,44.6,29.74,West,278,0.0,0.0,75,0.00,CLR,,0.01,WeatherDisplay:10.37,2013-10-18 10:02:00,
2013-10-18 06:07:00,52.2,44.5,29.75,SSW,206,0.0,0.0,75,0.00,CLR,,0.01,WeatherDisplay:10.37,2013-10-18 10:07:00,
2013-10-18 06:12:00,52.0,44.7,29.75,WSW,241,1.3,8.1,76,0.00,CLR,,0.01,WeatherDisplay:10.37,2013-10-18 10:12:00,
2013-10-18 06:17:00,51.9,44.6,29.75,West,275,1.2,3.5,76,0.00,CLR,,0.01,WeatherDisplay:10.37,2013-10-18 10:17:00,
2013-10-18 06:22:00,51.6,44.3,29.76,SW,226,1.4,6.9,76,0.00,CLR,,0.01,WeatherDisplay:10.37,2013-10-18 10:22:00,
2013-10-18 06:27:00,51.6,44.3,29.76,SW,230,0.0,0.0,76,0.00,CLR,,0.01,WeatherDisplay:10.37,2013-10-18 10:27:00,
2013-10-18 06:32:00,51.3,44.3,29.76,WSW,237,0.0,0.0,77,0.00,CLR,,0.01,WeatherDisplay:10.37,2013-10-18 10:32:00,
2013-10-18 06:37:00,51.1,44.1,29.76,WSW,240,0.0,0.0,77,0.00,CLR,,0.01,WeatherDisplay:10.37,2013-10-18 10:37:00,
2013-10-18 06:42:00,51.1,44.1,29.77,West,263,0.0,0.0,77,0.00,CLR,,0.01,WeatherDisplay:10.37,2013-10-18 10:42:00,
2013-10-18 06:47:00,51.0,44.0,29.77,SW,222,0.0,0.0,77,0.00,CLR,,0.01,WeatherDisplay:10.37,2013-10-18 10:47:00,
2013-10-18 06:52:00,50.8,43.8,29.77,WNW,302,0.0,0.0,77,0.00,CLR,,0.01,WeatherDisplay:10.37,2013-10-18 10:52:00,
2013-10-18 06:57:00,50.8,43.8,29.77,WNW,302,0.0,0.0,77,0.00,CLR,,0.01,WeatherDisplay:10.37,2013-10-18 10:57:00,
2013-10-18 07:02:00,51.0,44.0,29.77,WSW,254,1.2,0.0,77,0.00,CLR,,0.01,WeatherDisplay:10.37,2013-10-18 11:02:00,
2013-10-18 07:07:00,51.0,44.0,29.77,WNW,289,0.0,0.0,77,0.00,CLR,,0.01,WeatherDisplay:10.37,2013-10-18 11:07:00,
2013-10-18 07:12:00,50.8,43.8,29.77,West,261,0.0,0.0,77,0.00,CLR,,0.01,WeatherDisplay:10.37,2013-10-18 11:12:00,
2013-10-18 07:17:00,50.5,43.9,29.77,WSW,244,2.3,4.6,78,0.00,CLR,,0.01,WeatherDisplay:10.37,2013-10-18 11:17:00,
2013-10-18 07:22:00,50.5,43.9,29.78,West,260,0.0,0.0,78,0.00,CLR,,0.01,WeatherDisplay:10.37,2013-10-18 11:22:00,
2013-10-18 07:27:00,50.4,44.1,29.78,West,277,0.8,5.8,79,0.00,CLR,,0.01,WeatherDisplay:10.37,2013-10-18 11:27:00,
2013-10-18 07:32:00,50.5,43.9,29.78,WNW,285,2.1,8.1,78,0.00,CLR,,0.01,WeatherDisplay:10.37,2013-10-18 11:32:00,
2013-10-18 07:37:00,50.5,43.9,29.78,West,263,0.0,0.0,78,0.00,CLR,,0.01,WeatherDisplay:10.37,2013-10-18 11:37:00,
2013-10-18 07:42:00,50.5,43.9,29.78,WSW,253,0.0,0.0,78,0.00,CLR,,0.01,WeatherDisplay:10.37,2013-10-18 11:42:00,
2013-10-18 07:47:00,50.4,44.1,29.78,WSW,248,0.0,2.3,79,0.00,CLR,,0.01,WeatherDisplay:10.37,2013-10-18 11:47:00,
2013-10-18 07:52:00,50.4,44.1,29.79,West,268,0.5,4.6,79,0.00,CLR,,0.01,WeatherDisplay:10.37,2013-10-18 11:52:00,
2013-10-18 07:57:00,50.5,44.2,29.79,SW,226,0.0,0.0,79,0.00,CLR,,0.01,WeatherDisplay:10.37,2013-10-18 11:57:00,
2013-10-18 08:02:00,50.7,44.1,29.80,WNW,295,1.8,5.8,78,0.00,CLR,,0.01,WeatherDisplay:10.37,2013-10-18 12:02:00,
2013-10-18 08:07:00,50.8,44.2,29.80,WSW,257,0.0,0.0,78,0.00,CLR,,0.01,WeatherDisplay:10.37,2013-10-18 12:07:00,
2013-10-18 08:12:00,51.0,44.4,29.80,WSW,240,0.2,2.3,78,0.00,CLR,,0.01,WeatherDisplay:10.37,2013-10-18 12:12:00,
2013-10-18 08:17:00,51.1,44.5,29.80,WSW,244,2.9,10.4,78,0.00,CLR,,0.01,WeatherDisplay:10.37,2013-10-18 12:17:00,
2013-10-18 08:22:00,51.3,44.3,29.80,WNW,302,2.8,7.0,77,0.00,CLR,,0.01,WeatherDisplay:10.37,2013-10-18 12:22:00,
2013-10-18 08:27:00,51.6,44.6,29.81,West,267,0.7,4.6,77,0.00,CLR,,0.01,WeatherDisplay:10.37,2013-10-18 12:27:00,
2013-10-18 08:32:00,51.7,44.4,29.81,West,263,1.7,5.8,76,0.00,CLR,,0.01,WeatherDisplay:10.37,2013-10-18 12:32:00,
2013-10-18 08:37:00,52.0,44.3,29.81,NW,304,3.7,13.0,75,0.00,CLR,,0.01,WeatherDisplay:10.37,2013-10-18 12:37:00,
2013-10-18 08:42:00,52.3,44.6,29.81,NW,308,0.9,7.0,75,0.00,CLR,,0.01,WeatherDisplay:10.37,2013-10-18 12:42:00,
2013-10-18 08:47:00,52.6,44.5,29.81,West,277,0.0,3.5,74,0.00,CLR,,0.01,WeatherDisplay:10.37,2013-10-18 12:47:00,
2013-10-18 08:52:00,52.9,44.8,29.81,NNW,332,2.6,5.8,74,0.00,CLR,,0.01,WeatherDisplay:10.37,2013-10-18 12:52:00,
2013-10-18 08:57:00,53.2,45.1,29.81,NNW,329,0.0,0.0,74,0.00,CLR,,0.01,WeatherDisplay:10.37,2013-10-18 12:57:00,
2013-10-18 09:02:00,53.3,44.5,29.82,NW,318,5.1,6.9,72,0.00,CLR,,0.01,WeatherDisplay:10.37,2013-10-18 13:02:00,
2013-10-18 09:07:00,53.5,44.7,29.82,WSW,244,2.2,11.5,72,0.00,CLR,,0.01,WeatherDisplay:10.37,2013-10-18 13:07:00,
2013-10-18 09:12:00,53.6,45.2,29.82,WNW,292,0.4,3.5,73,0.00,CLR,,0.01,WeatherDisplay:10.37,2013-10-18 13:12:00,
2013-10-18 09:17:00,53.9,44.3,29.82,WSW,247,5.9,13.8,70,0.00,CLR,,0.01,WeatherDisplay:10.37,2013-10-18 13:17:00,
2013-10-18 09:22:00,54.4,45.2,29.82,NW,306,2.7,4.6,71,0.00,CLR,,0.01,WeatherDisplay:10.37,2013-10-18 13:22:00,
2013-10-18 09:27:00,54.7,45.1,29.82,WNW,282,2.6,3.5,70,0.00,CLR,,0.01,WeatherDisplay:10.37,2013-10-18 13:27:00,
2013-10-18 09:32:00,54.7,44.3,29.82,NW,305,6.6,13.0,68,0.00,CLR,,0.01,WeatherDisplay:10.37,2013-10-18 13:32:00,
2013-10-18 09:37:00,54.7,44.3,29.83,WNW,284,5.1,8.1,68,0.00,CLR,,0.01,WeatherDisplay:10.37,2013-10-18 13:37:00,
2013-10-18 09:42:00,54.8,44.0,29.83,NNW,337,3.8,11.5,67,0.00,CLR,,0.01,WeatherDisplay:10.37,2013-10-18 13:42:00,
2013-10-18 09:47:00,55.1,44.3,29.83,NNW,342,0.3,4.6,67,0.00,CLR,,0.01,WeatherDisplay:10.37,2013-10-18 13:47:00,
2013-10-18 09:52:00,55.4,44.2,29.83,NW,309,0.1,10.4,66,0.00,CLR,,0.01,WeatherDisplay:10.37,2013-10-18 13:52:00,
2013-10-18 09:57:00,55.7,44.5,29.83,WNW,298,0.0,8.1,66,0.00,CLR,,0.01,WeatherDisplay:10.37,2013-10-18 13:57:00,
2013-10-18 10:02:00,56.5,45.3,29.83,WNW,288,0.0,8.1,66,0.00,CLR,,0.01,WeatherDisplay:10.37,2013-10-18 14:02:00,
2013-10-18 10:07:00,56.9,44.8,29.83,NW,304,0.8,8.1,64,0.00,CLR,,0.01,WeatherDisplay:10.37,2013-10-18 14:07:00,
2013-10-18 10:12:00,57.0,44.5,29.83,WNW,292,1.0,8.0,63,0.00,CLR,,0.01,WeatherDisplay:10.37,2013-10-18 14:12:00,
2013-10-18 10:17:00,56.7,44.2,29.83,WNW,298,6.7,18.4,63,0.00,CLR,,0.01,WeatherDisplay:10.37,2013-10-18 14:17:00,
2013-10-18 10:22:00,56.9,44.8,29.83,WSW,253,2.5,8.1,64,0.00,CLR,,0.01,WeatherDisplay:10.37,2013-10-18 14:22:00,
2013-10-18 10:27:00,57.2,44.3,29.83,West,274,0.8,6.9,62,0.00,CLR,,0.01,WeatherDisplay:10.37,2013-10-18 14:27:00,
2013-10-18 10:32:00,57.5,44.6,29.83,North,0,0.7,3.5,62,0.00,CLR,,0.01,WeatherDisplay:10.37,2013-10-18 14:32:00,
2013-10-18 10:37:00,57.8,44.0,29.83,WNW,292,3.6,10.4,60,0.00,CLR,,0.01,WeatherDisplay:10.37,2013-10-18 14:37:00,
2013-10-18 10:42:00,57.8,44.0,29.83,WNW,294,0.5,4.6,60,0.00,CLR,,0.01,WeatherDisplay:10.37,2013-10-18 14:42:00,
2013-10-18 10:47:00,58.3,44.5,29.83,NNW,344,0.7,11.5,60,0.00,CLR,,0.01,WeatherDisplay:10.37,2013-10-18 14:47:00,
2013-10-18 10:52:00,58.7,44.0,29.83,West,268,3.0,8.1,58,0.00,CLR,,0.01,WeatherDisplay:10.37,2013-10-18 14:52:00,
2013-10-18 10:57:00,58.6,43.9,29.83,WNW,284,2.7,10.4,58,0.00,CLR,,0.01,WeatherDisplay:10.37,2013-10-18 14:57:00,
2013-10-18 11:02:00,58.6,44.8,29.83,NNW,344,1.6,6.0,60,0.00,CLR,,0.01,WeatherDisplay:10.37,2013-10-18 15:02:00,
2013-10-18 11:07:00,58.7,44.8,29.83,SSW,213,0.0,0.0,60,0.00,CLR,,0.01,WeatherDisplay:10.37,2013-10-18 15:07:00,
2013-10-18 11:12:00,59.0,44.7,29.83,NW,313,1.8,7.0,59,0.00,CLR,,0.01,WeatherDisplay:10.37,2013-10-18 15:12:00,
2013-10-18 11:17:00,59.2,44.4,29.83,West,270,4.0,8.1,58,0.00,CLR,,0.01,WeatherDisplay:10.37,2013-10-18 15:17:00,
2013-10-18 11:22:00,59.0,43.8,29.83,NW,319,7.3,13.0,57,0.00,CLR,,0.01,WeatherDisplay:10.37,2013-10-18 15:22:00,
2013-10-18 11:27:00,58.9,44.1,29.83,NW,312,0.0,2.3,58,0.00,CLR,,0.01,WeatherDisplay:10.37,2013-10-18 15:27:00,
2013-10-18 11:32:00,59.3,44.1,29.83,NW,326,4.7,11.5,57,0.00,CLR,,0.01,WeatherDisplay:10.37,2013-10-18 15:32:00,
2013-10-18 11:37:00,59.5,44.2,29.83,NW,318,5.6,10.4,57,0.00,CLR,,0.01,WeatherDisplay:10.37,2013-10-18 15:37:00,
2013-10-18 11:42:00,59.6,43.4,29.83,WNW,294,0.8,5.8,55,0.00,CLR,,0.01,WeatherDisplay:10.37,2013-10-18 15:42:00,
2013-10-18 11:47:00,60.2,44.4,29.83,WSW,258,0.7,5.8,56,0.00,CLR,,0.01,WeatherDisplay:10.37,2013-10-18 15:47:00,
2013-10-18 11:52:00,60.5,44.2,29.83,NNW,342,3.0,11.5,55,0.00,CLR,,0.01,WeatherDisplay:10.37,2013-10-18 15:52:00,
2013-10-18 11:57:00,59.9,43.7,29.83,NNW,340,5.6,11.5,55,0.00,CLR,,0.01,WeatherDisplay:10.37,2013-10-18 15:57:00,
2013-10-18 12:02:00,59.2,43.5,29.83,NNW,335,0.0,5.8,56,0.00,CLR,,0.01,WeatherDisplay:10.37,2013-10-18 16:02:00,
2013-10-18 12:07:00,59.3,44.1,29.83,WNW,284,0.0,2.3,57,0.00,CLR,,0.01,WeatherDisplay:10.37,2013-10-18 16:07:00,
2013-10-18 12:12:00,60.2,43.5,29.83,WNW,292,0.8,3.5,54,0.00,CLR,,0.01,WeatherDisplay:10.37,2013-10-18 16:12:00,
2013-10-18 12:17:00,60.9,44.1,29.83,WNW,292,0.0,8.1,54,0.00,CLR,,0.01,WeatherDisplay:10.37,2013-10-18 16:17:00,
2013-10-18 12:22:00,61.2,43.4,29.83,WSW,237,1.7,5.8,52,0.00,CLR,,0.01,WeatherDisplay:10.37,2013-10-18 16:22:00,
2013-10-18 12:27:00,60.9,43.1,29.83,WNW,282,3.3,12.7,52,0.00,CLR,,0.01,WeatherDisplay:10.37,2013-10-18 16:27:00,
2013-10-18 12:32:00,61.3,43.5,29.83,WNW,284,1.3,6.9,52,0.00,CLR,,0.01,WeatherDisplay:10.37,2013-10-18 16:32:00,
2013-10-18 12:37:00,62.3,45.4,29.82,NNW,340,1.4,5.8,54,0.00,CLR,,0.01,WeatherDisplay:10.37,2013-10-18 16:37:00,
2013-10-18 12:42:00,62.6,43.7,29.83,WNW,302,3.5,6.9,50,0.00,CLR,,0.01,WeatherDisplay:10.37,2013-10-18 16:42:00,
2013-10-18 12:47:00,62.3,43.4,29.83,WNW,284,3.8,13.8,50,0.00,CLR,,0.01,WeatherDisplay:10.37,2013-10-18 16:47:00,
2013-10-18 12:52:00,61.6,43.3,29.82,SW,234,5.4,6.9,51,0.00,CLR,,0.01,WeatherDisplay:10.37,2013-10-18 16:52:00,
2013-10-18 12:57:00,61.6,43.8,29.82,WNW,301,0.8,1.0,52,0.00,CLR,,0.01,WeatherDisplay:10.37,2013-10-18 16:57:00,
2013-10-18 13:02:00,61.8,44.0,29.82,WNW,301,1.5,17.3,52,0.00,CLR,,0.01,WeatherDisplay:10.37,2013-10-18 17:02:00,
2013-10-18 13:07:00,61.8,44.0,29.82,NW,323,2.2,3.5,52,0.00,CLR,,0.01,WeatherDisplay:10.37,2013-10-18 17:07:00,
2013-10-18 13:12:00,61.3,44.0,29.83,NW,309,1.5,6.0,53,0.00,CLR,,0.01,WeatherDisplay:10.37,2013-10-18 17:12:00,
2013-10-18 13:17:00,61.2,43.4,29.83,SW,229,1.4,3.5,52,0.00,CLR,,0.01,WeatherDisplay:10.37,2013-10-18 17:17:00,
2013-10-18 13:22:00,61.5,44.2,29.82,NNW,335,0.7,5.8,53,0.00,CLR,,0.01,WeatherDisplay:10.37,2013-10-18 17:22:00,
2013-10-18 13:27:00,62.1,44.3,29.82,West,280,2.4,4.6,52,0.00,CLR,,0.01,WeatherDisplay:10.37,2013-10-18 17:27:00,
2013-10-18 13:32:00,61.6,43.3,29.83,West,278,7.6,18.4,51,0.00,CLR,,0.01,WeatherDisplay:10.37,2013-10-18 17:32:00,
2013-10-18 13:35:00,61.3,43.5,29.83,West,281,1.4,4.6,52,0.00,CLR,,0.01,WeatherDisplay:10.37,2013-10-18 17:35:00,
2013-10-18 13:40:00,61.5,43.7,29.82,West,263,0.6,3.5,52,0.00,CLR,,0.01,WeatherDisplay:10.37,2013-10-18 17:40:00,
2013-10-18 13:45:00,61.8,43.5,29.82,WNW,296,2.7,6.9,51,0.00,CLR,,0.01,WeatherDisplay:10.37,2013-10-18 17:45:00,
2013-10-18 13:50:00,61.6,43.8,29.82,WNW,295,4.6,13.8,52,0.00,CLR,,0.01,WeatherDisplay:10.37,2013-10-18 17:50:00,
2013-10-18 13:55:00,61.8,43.5,29.82,WSW,240,1.0,3.5,51,0.00,CLR,,0.01,WeatherDisplay:10.37,2013-10-18 17:55:00,
2013-10-18 14:00:00,61.0,43.2,29.82,WSW,258,1.2,4.6,52,0.00,CLR,,0.01,WeatherDisplay:10.37,2013-10-18 18:00:00,
2013-10-18 14:05:00,60.9,43.6,29.82,NW,312,1.2,6.9,53,0.00,CLR,,0.01,WeatherDisplay:10.37,2013-10-18 18:05:00,
2013-10-18 14:10:00,61.3,43.0,29.82,West,272,1.9,11.5,51,0.00,CLR,,0.01,WeatherDisplay:10.37,2013-10-18 18:10:00,
2013-10-18 14:15:00,61.5,43.2,29.82,NNW,328,1.6,9.2,51,0.00,CLR,,0.01,WeatherDisplay:10.37,2013-10-18 18:15:00,
2013-10-18 14:20:00,61.3,43.5,29.82,WNW,295,1.4,10.4,52,0.00,CLR,,0.01,WeatherDisplay:10.37,2013-10-18 18:20:00,
2013-10-18 14:25:00,61.6,43.3,29.82,WNW,292,0.5,3.5,51,0.00,CLR,,0.01,WeatherDisplay:10.37,2013-10-18 18:25:00,
2013-10-18 14:30:00,62.3,43.4,29.82,WNW,289,2.0,6.9,50,0.00,CLR,,0.01,WeatherDisplay:10.37,2013-10-18 18:30:00,
2013-10-18 14:35:00,62.7,43.8,29.82,NW,319,0.4,2.3,50,0.00,CLR,,0.01,WeatherDisplay:10.37,2013-10-18 18:35:00,
2013-10-18 14:40:00,63.1,44.2,29.82,WSW,244,0.8,3.5,50,0.00,CLR,,0.01,WeatherDisplay:10.37,2013-10-18 18:40:00,
2013-10-18 14:45:00,63.1,44.2,29.82,WNW,296,3.2,11.5,50,0.00,CLR,,0.01,WeatherDisplay:10.37,2013-10-18 18:45:00,
2013-10-18 14:50:00,63.1,43.6,29.82,WNW,298,2.0,5.8,49,0.00,CLR,,0.01,WeatherDisplay:10.37,2013-10-18 18:50:00,
2013-10-18 14:55:00,62.6,43.2,29.82,WNW,287,0.0,5.8,49,0.00,CLR,,0.01,WeatherDisplay:10.37,2013-10-18 18:55:00,
2013-10-18 15:00:00,62.4,43.5,29.82,NW,304,0.8,12.7,50,0.00,CLR,,0.01,WeatherDisplay:10.37,2013-10-18 19:00:00,
2013-10-18 15:05:00,62.1,43.2,29.82,NW,304,2.4,8.1,50,0.00,CLR,,0.01,WeatherDisplay:10.37,2013-10-18 19:05:00,
2013-10-18 15:10:00,62.0,42.6,29.82,WNW,288,4.3,14.0,49,0.00,CLR,,0.01,WeatherDisplay:10.37,2013-10-18 19:10:00,
2013-10-18 15:15:00,62.0,42.1,29.82,WNW,289,3.6,15.0,48,0.00,CLR,,0.01,WeatherDisplay:10.37,2013-10-18 19:15:00,
2013-10-18 15:20:00,61.8,42.4,29.82,NW,309,1.1,4.6,49,0.00,CLR,,0.01,WeatherDisplay:10.37,2013-10-18 19:20:00,
2013-10-18 15:25:00,62.0,42.6,29.82,WNW,294,3.7,11.5,49,0.00,CLR,,0.01,WeatherDisplay:10.37,2013-10-18 19:25:00,
2013-10-18 15:30:00,62.0,42.1,29.82,WNW,287,1.8,5.8,48,0.00,CLR,,0.01,WeatherDisplay:10.37,2013-10-18 19:30:00,
2013-10-18 15:35:00,62.1,42.7,29.82,WNW,292,0.8,3.5,49,0.00,CLR,,0.01,WeatherDisplay:10.37,2013-10-18 19:35:00,
2013-10-18 15:40:00,62.6,42.1,29.82,WSW,253,1.5,5.8,47,0.00,CLR,,0.01,WeatherDisplay:10.37,2013-10-18 19:40:00,
2013-10-18 15:45:00,62.6,42.1,29.82,WNW,289,2.6,11.5,47,0.00,CLR,,0.01,WeatherDisplay:10.37,2013-10-18 19:45:00,
2013-10-18 15:50:00,62.6,42.1,29.82,NW,305,2.2,6.9,47,0.00,CLR,,0.01,WeatherDisplay:10.37,2013-10-18 19:50:00,
2013-10-18 15:55:00,62.4,41.9,29.82,West,261,3.0,10.4,47,0.00,CLR,,0.01,WeatherDisplay:10.37,2013-10-18 19:55:00,
2013-10-18 16:00:00,62.3,42.3,29.82,WNW,299,0.2,3.5,48,0.00,CLR,,0.01,WeatherDisplay:10.37,2013-10-18 20:00:00,
2013-10-18 16:05:00,62.4,43.0,29.82,NNW,346,0.0,0.0,49,0.00,CLR,,0.01,WeatherDisplay:10.37,2013-10-18 20:05:00,
2013-10-18 16:10:00,62.6,42.1,29.82,WNW,296,1.6,4.6,47,0.00,CLR,,0.01,WeatherDisplay:10.37,2013-10-18 20:10:00,
2013-10-18 16:15:00,62.3,42.3,29.82,WNW,294,0.8,4.6,48,0.00,CLR,,0.01,WeatherDisplay:10.37,2013-10-18 20:15:00,
2013-10-18 16:20:00,62.3,42.3,29.82,WSW,250,2.7,10.0,48,0.00,CLR,,0.01,WeatherDisplay:10.37,2013-10-18 20:20:00,
2013-10-18 16:25:00,62.1,42.2,29.82,NW,323,2.6,17.3,48,0.00,CLR,,0.01,WeatherDisplay:10.37,2013-10-18 20:25:00,
2013-10-18 16:30:00,61.8,42.4,29.82,WNW,289,0.4,4.6,49,0.00,CLR,,0.01,WeatherDisplay:10.37,2013-10-18 20:30:00,
2013-10-18 16:35:00,61.8,43.0,29.82,WNW,288,0.3,2.3,50,0.00,CLR,,0.01,WeatherDisplay:10.37,2013-10-18 20:35:00,
2013-10-18 16:40:00,61.8,42.4,29.82,West,280,0.0,0.0,49,0.00,CLR,,0.01,WeatherDisplay:10.37,2013-10-18 20:40:00,
2013-10-18 16:45:00,62.0,42.1,29.82,WNW,282,1.2,4.6,48,0.00,CLR,,0.01,WeatherDisplay:10.37,2013-10-18 20:45:00,
2013-10-18 16:50:00,61.8,43.0,29.82,WSW,244,0.2,3.5,50,0.00,CLR,,0.01,WeatherDisplay:10.37,2013-10-18 20:50:00,
2013-10-18 16:55:00,62.0,42.6,29.82,West,280,0.8,4.6,49,0.00,CLR,,0.01,WeatherDisplay:10.37,2013-10-18 20:55:00,
2013-10-18 17:00:00,62.0,42.6,29.83,NW,304,4.3,8.1,49,0.00,CLR,,0.01,WeatherDisplay:10.37,2013-10-18 21:00:00,
2013-10-18 17:05:00,61.8,43.0,29.83,West,264,0.0,0.0,50,0.00,CLR,,0.01,WeatherDisplay:10.37,2013-10-18 21:05:00,
2013-10-18 17:10:00,61.8,42.4,29.83,West,281,1.2,4.6,49,0.00,CLR,,0.01,WeatherDisplay:10.37,2013-10-18 21:10:00,
2013-10-18 17:15:00,61.6,42.8,29.83,WSW,253,0.2,6.0,50,0.00,CLR,,0.01,WeatherDisplay:10.37,2013-10-18 21:15:00,
2013-10-18 17:20:00,61.5,42.7,29.83,West,274,0.0,0.0,50,0.00,CLR,,0.01,WeatherDisplay:10.37,2013-10-18 21:20:00,
2013-10-18 17:25:00,61.3,42.0,29.83,West,274,5.2,6.9,49,0.00,CLR,,0.01,WeatherDisplay:10.37,2013-10-18 21:25:00,
2013-10-18 17:30:00,60.9,42.1,29.84,West,280,3.0,8.1,50,0.00,CLR,,0.01,WeatherDisplay:10.37,2013-10-18 21:30:00,
2013-10-18 17:35:00,60.5,41.8,29.84,WNW,288,1.3,3.5,50,0.00,CLR,,0.01,WeatherDisplay:10.37,2013-10-18 21:35:00,
2013-10-18 17:40:00,60.4,42.2,29.84,North,352,1.4,5.8,51,0.00,CLR,,0.01,WeatherDisplay:10.37,2013-10-18 21:40:00,
2013-10-18 17:45:00,60.1,41.9,29.84,NW,306,0.5,2.3,51,0.00,CLR,,0.01,WeatherDisplay:10.37,2013-10-18 21:45:00,
2013-10-18 17:50:00,59.8,41.6,29.84,WSW,253,1.3,4.6,51,0.00,CLR,,0.01,WeatherDisplay:10.37,2013-10-18 21:50:00,
2013-10-18 17:55:00,59.6,41.9,29.84,WNW,294,0.4,2.3,52,0.00,CLR,,0.01,WeatherDisplay:10.37,2013-10-18 21:55:00,
2013-10-18 18:00:00,59.3,41.7,29.85,NW,319,0.0,0.0,52,0.00,CLR,,0.01,WeatherDisplay:10.37,2013-10-18 22:00:00,
2013-10-18 18:05:00,58.9,41.8,29.85,WNW,289,1.0,3.5,53,0.00,CLR,,0.01,WeatherDisplay:10.37,2013-10-18 22:05:00,
2013-10-18 18:10:00,58.6,42.0,29.86,West,265,0.1,1.2,54,0.00,CLR,,0.01,WeatherDisplay:10.37,2013-10-18 22:10:00,
2013-10-18 18:15:00,58.1,41.5,29.86,WSW,258,0.2,1.2,54,0.00,CLR,,0.01,WeatherDisplay:10.37,2013-10-18 22:15:00,
2013-10-18 18:20:00,57.8,41.7,29.86,WSW,250,0.0,0.0,55,0.00,CLR,,0.01,WeatherDisplay:10.37,2013-10-18 22:20:00,
2013-10-18 18:25:00,57.5,41.9,29.86,SW,233,2.3,6.9,56,0.00,CLR,,0.01,WeatherDisplay:10.37,2013-10-18 22:25:00,
2013-10-18 18:30:00,57.3,41.7,29.86,WSW,251,0.0,0.0,56,0.00,CLR,,0.01,WeatherDisplay:10.37,2013-10-18 22:30:00,
2013-10-18 18:35:00,57.0,41.4,29.87,SW,227,0.1,2.3,56,0.00,CLR,,0.01,WeatherDisplay:10.37,2013-10-18 22:35:00,
2013-10-18 18:40:00,56.9,41.8,29.87,SW,232,0.0,0.0,57,0.00,CLR,,0.01,WeatherDisplay:10.37,2013-10-18 22:40:00,
2013-10-18 18:45:00,56.7,41.6,29.87,SW,232,0.1,2.3,57,0.00,CLR,,0.01,WeatherDisplay:10.37,2013-10-18 22:45:00,
2013-10-18 18:50:00,56.6,41.5,29.88,WSW,239,1.0,4.6,57,0.00,CLR,,0.01,WeatherDisplay:10.37,2013-10-18 22:50:00,
2013-10-18 18:55:00,56.6,41.5,29.88,WSW,256,0.0,0.0,57,0.00,CLR,,0.01,WeatherDisplay:10.37,2013-10-18 22:55:00,
2013-10-18 19:00:00,56.3,41.7,29.88,WSW,241,0.0,0.0,58,0.00,CLR,,0.01,WeatherDisplay:10.37,2013-10-18 23:00:00,
2013-10-18 19:05:00,56.0,41.4,29.88,WSW,248,0.3,3.5,58,0.00,CLR,,0.01,WeatherDisplay:10.37,2013-10-18 23:05:00,
2013-10-18 19:10:00,55.7,41.6,29.88,West,264,0.0,0.0,59,0.00,CLR,,0.01,WeatherDisplay:10.37,2013-10-18 23:10:00,
2013-10-18 19:15:00,55.4,41.3,29.88,West,261,0.0,0.0,59,0.00,CLR,,0.01,WeatherDisplay:10.37,2013-10-18 23:15:00,
2013-10-18 19:20:00,55.1,41.5,29.88,West,263,0.0,0.0,60,0.00,CLR,,0.01,WeatherDisplay:10.37,2013-10-18 23:20:00,
2013-10-18 19:25:00,55.0,41.4,29.89,West,268,0.0,0.0,60,0.00,CLR,,0.01,WeatherDisplay:10.37,2013-10-18 23:25:00,
2013-10-18 19:30:00,54.7,41.5,29.89,West,270,0.0,0.0,61,0.00,CLR,,0.01,WeatherDisplay:10.37,2013-10-18 23:30:00,
2013-10-18 19:35:00,54.5,41.3,29.89,West,271,0.0,0.0,61,0.00,CLR,,0.01,WeatherDisplay:10.37,2013-10-18 23:35:00,
2013-10-18 19:40:00,54.4,41.2,29.89,WSW,257,0.0,0.0,61,0.00,CLR,,0.01,WeatherDisplay:10.37,2013-10-18 23:40:00,
2013-10-18 19:45:00,54.2,41.5,29.89,West,264,0.0,0.0,62,0.00,CLR,,0.01,WeatherDisplay:10.37,2013-10-18 23:45:00,
2013-10-18 19:50:00,54.1,41.4,29.89,WSW,247,0.1,3.5,62,0.00,CLR,,0.01,WeatherDisplay:10.37,2013-10-18 23:50:00,
2013-10-18 19:55:00,53.9,41.2,29.90,West,277,1.2,3.5,62,0.00,CLR,,0.01,WeatherDisplay:10.37,2013-10-18 23:55:00,
2013-10-18 20:00:00,53.9,41.2,29.90,WNW,298,1.4,4.6,62,0.00,CLR,,0.01,WeatherDisplay:10.37,2013-10-19 00:00:00,
2013-10-18 20:05:00,53.8,41.1,29.90,WNW,287,0.0,0.0,62,0.00,CLR,,0.01,WeatherDisplay:10.37,2013-10-19 00:05:00,
2013-10-18 20:10:00,53.8,41.1,29.90,West,275,0.2,2.3,62,0.00,CLR,,0.01,WeatherDisplay:10.37,2013-10-19 00:10:00,
2013-10-18 20:15:00,53.6,40.9,29.90,West,260,0.4,4.6,62,0.00,CLR,,0.01,WeatherDisplay:10.37,2013-10-19 00:15:00,
2013-10-18 20:20:00,53.6,40.9,29.90,WNW,289,1.1,3.5,62,0.00,CLR,,0.01,WeatherDisplay:10.37,2013-10-19 00:20:00,
2013-10-18 20:25:00,53.6,40.9,29.90,WNW,282,1.3,4.6,62,0.00,CLR,,0.01,WeatherDisplay:10.37,2013-10-19 00:25:00,
2013-10-18 20:30:00,53.6,40.9,29.90,WNW,299,0.5,4.6,62,0.00,CLR,,0.01,WeatherDisplay:10.37,2013-10-19 00:30:00,
2013-10-18 20:35:00,53.6,40.5,29.90,West,274,0.3,2.3,61,0.00,CLR,,0.01,WeatherDisplay:10.37,2013-10-19 00:35:00,
2013-10-18 20:40:00,53.6,40.5,29.90,WNW,282,0.8,4.6,61,0.00,CLR,,0.01,WeatherDisplay:10.37,2013-10-19 00:40:00,
2013-10-18 20:45:00,53.6,40.5,29.90,WNW,294,0.0,0.0,61,0.00,CLR,,0.01,WeatherDisplay:10.37,2013-10-19 00:45:00,
2013-10-18 20:50:00,53.5,40.4,29.90,West,278,0.8,3.5,61,0.00,CLR,,0.01,WeatherDisplay:10.37,2013-10-19 00:50:00,
2013-10-18 20:55:00,53.6,40.5,29.90,West,263,0.2,2.3,61,0.00,CLR,,0.01,WeatherDisplay:10.37,2013-10-19 00:55:00,
2013-10-18 21:00:00,53.5,40.4,29.91,WNW,285,0.8,4.0,61,0.00,CLR,,0.01,WeatherDisplay:10.37,2013-10-19 01:00:00,
2013-10-18 21:05:00,53.5,40.4,29.91,WNW,285,0.8,3.5,61,0.00,CLR,,0.01,WeatherDisplay:10.37,2013-10-19 01:05:00,
2013-10-18 21:10:00,53.3,40.2,29.91,WNW,291,0.0,0.0,61,0.00,CLR,,0.01,WeatherDisplay:10.37,2013-10-19 01:10:00,
2013-10-18 21:15:00,53.2,40.1,29.91,West,281,0.2,1.2,61,0.00,CLR,,0.01,WeatherDisplay:10.37,2013-10-19 01:15:00,
2013-10-18 21:20:00,53.1,40.4,29.91,WNW,282,0.0,0.0,62,0.00,CLR,,0.01,WeatherDisplay:10.37,2013-10-19 01:20:00,
2013-10-18 21:25:00,52.9,40.2,29.91,WNW,288,0.0,0.0,62,0.00,CLR,,0.01,WeatherDisplay:10.37,2013-10-19 01:25:00,
2013-10-18 21:30:00,52.6,40.4,29.91,WNW,288,0.0,0.0,63,0.00,CLR,,0.01,WeatherDisplay:10.37,2013-10-19 01:30:00,
2013-10-18 21:35:00,52.2,40.0,29.91,WNW,287,0.0,0.0,63,0.00,CLR,,0.01,WeatherDisplay:10.37,2013-10-19 01:35:00,
2013-10-18 21:40:00,51.9,40.1,29.91,WNW,287,0.0,0.0,64,0.00,CLR,,0.01,WeatherDisplay:10.37,2013-10-19 01:40:00,
2013-10-18 21:45:00,51.6,40.2,29.91,WNW,287,0.0,0.0,65,0.00,CLR,,0.01,WeatherDisplay:10.37,2013-10-19 01:45:00,
2013-10-18 21:50:00,51.3,39.9,29.91,WNW,287,0.0,0.0,65,0.00,CLR,,0.01,WeatherDisplay:10.37,2013-10-19 01:50:00,
2013-10-18 21:55:00,51.3,39.9,29.92,West,280,0.0,0.0,65,0.00,CLR,,0.01,WeatherDisplay:10.37,2013-10-19 01:55:00,
2013-10-18 22:00:00,51.3,40.3,29.92,SW,236,0.0,0.0,66,0.00,CLR,,0.01,WeatherDisplay:10.37,2013-10-19 02:00:00,
2013-10-18 22:05:00,51.4,40.4,29.92,SW,224,0.0,0.0,66,0.00,CLR,,0.01,WeatherDisplay:10.37,2013-10-19 02:05:00,
2013-10-18 22:10:00,51.3,40.3,29.92,SW,226,0.0,0.0,66,0.00,CLR,,0.01,WeatherDisplay:10.37,2013-10-19 02:10:00,
2013-10-18 22:15:00,51.1,40.5,29.92,SW,219,0.0,0.0,67,0.00,CLR,,0.01,WeatherDisplay:10.37,2013-10-19 02:15:00,
2013-10-18 22:20:00,51.1,40.1,29.92,SW,220,0.0,0.0,66,0.00,CLR,,0.01,WeatherDisplay:10.37,2013-10-19 02:20:00,
2013-10-18 22:25:00,51.1,40.1,29.92,SSW,208,0.0,0.0,66,0.00,CLR,,0.01,WeatherDisplay:10.37,2013-10-19 02:25:00,
2013-10-18 22:30:00,51.1,40.1,29.92,SW,217,0.0,0.0,66,0.00,CLR,,0.01,WeatherDisplay:10.37,2013-10-19 02:30:00,
2013-10-18 22:35:00,50.8,40.2,29.92,SW,222,0.0,0.0,67,0.00,CLR,,0.01,WeatherDisplay:10.37,2013-10-19 02:35:00,
2013-10-18 22:40:00,50.5,40.3,29.92,SW,219,0.0,0.0,68,0.00,CLR,,0.01,WeatherDisplay:10.37,2013-10-19 02:40:00,
2013-10-18 22:45:00,50.4,40.2,29.93,SW,220,0.0,0.0,68,0.00,CLR,,0.01,WeatherDisplay:10.37,2013-10-19 02:45:00,
2013-10-18 22:50:00,50.1,40.3,29.93,SW,222,0.0,0.0,69,0.00,CLR,,0.01,WeatherDisplay:10.37,2013-10-19 02:50:00,
2013-10-18 22:55:00,49.8,40.0,29.93,SW,223,0.0,0.0,69,0.00,CLR,,0.01,WeatherDisplay:10.37,2013-10-19 02:55:00,
2013-10-18 23:00:00,49.6,40.2,29.93,SW,223,0.0,0.0,70,0.00,CLR,,0.01,WeatherDisplay:10.37,2013-10-19 03:00:00,
2013-10-18 23:05:00,49.2,40.2,29.93,SW,223,0.0,0.0,71,0.00,CLR,,0.01,WeatherDisplay:10.37,2013-10-19 03:05:00,
2013-10-18 23:10:00,48.9,39.9,29.93,SW,223,0.0,0.0,71,0.00,CLR,,0.01,WeatherDisplay:10.37,2013-10-19 03:10:00,
2013-10-18 23:15:00,48.8,40.2,29.93,SW,222,0.0,0.0,72,0.00,CLR,,0.01,WeatherDisplay:10.37,2013-10-19 03:15:00,
2013-10-18 23:20:00,48.5,39.9,29.93,SW,222,0.0,0.0,72,0.00,CLR,,0.01,WeatherDisplay:10.37,2013-10-19 03:20:00,
2013-10-18 23:25:00,48.2,39.9,29.93,SW,222,0.0,0.0,73,0.00,CLR,,0.01,WeatherDisplay:10.37,2013-10-19 03:25:00,
2013-10-18 23:30:00,47.9,40.0,29.93,SW,222,0.0,0.0,74,0.00,CLR,,0.01,WeatherDisplay:10.37,2013-10-19 03:30:00,
2013-10-18 23:35:00,47.6,40.4,29.93,SW,222,0.0,0.0,76,0.00,CLR,,0.01,WeatherDisplay:10.37,2013-10-19 03:35:00,
2013-10-18 23:40:00,47.3,40.5,29.93,SW,222,0.0,0.0,77,0.00,CLR,,0.01,WeatherDisplay:10.37,2013-10-19 03:40:00,
2013-10-18 23:45:00,47.1,40.6,29.93,SW,222,0.0,0.0,78,0.00,CLR,,0.01,WeatherDisplay:10.37,2013-10-19 03:45:00,
2013-10-18 23:50:00,47.0,40.5,29.93,SW,222,0.0,0.0,78,0.00,CLR,,0.01,WeatherDisplay:10.37,2013-10-19 03:50:00,
2013-10-18 23:55:00,46.8,40.3,29.93,SW,222,0.0,0.0,78,0.00,CLR,,0.01,WeatherDisplay:10.37,2013-10-19 03:55:00,